Time;durP1;ratioP1;P1;durP2;ratioP2;P2;SDS_P1;SDS_P2;PMS_P1;PMS_P2;Temp;Humidity;BMP_temperature;BMP_pressure;BME280_temperature;BME280_humidity;BME280_pressure;Samples;Min_cycle;Max_cycle;Signal;HPM_P1;HPM_P2
2023/11/17 00:01:37;;;;;;;40.05;16.10;;;5.90;99.90;;;;;;4935156;29;20126;-95
2023/11/17 00:04:03;;;;;;;35.33;13.82;;;5.90;99.90;;;;;;4933192;29;20159;-95
2023/11/17 00:06:29;;;;;;;31.55;13.20;;;6.00;99.90;;;;;;4933387;29;20466;-96
2023/11/17 00:08:55;;;;;;;28.58;13.13;;;6.00;99.90;;;;;;4933705;29;20024;-95
2023/11/17 00:11:21;;;;;;;29.67;12.57;;;6.00;99.90;;;;;;4933771;29;20032;-95
2023/11/17 00:13:49;;;;;;;31.58;13.07;;;6.00;99.90;;;;;;4929779;29;20190;-95
2023/11/17 00:16:18;;;;;;;27.92;13.40;;;6.00;99.90;;;;;;4931883;29;20036;-95
2023/11/17 00:18:44;;;;;;;31.98;12.38;;;6.00;99.90;;;;;;4930588;29;20105;-94
2023/11/17 00:21:10;;;;;;;31.58;12.90;;;6.00;99.90;;;;;;4930564;29;20056;-94
2023/11/17 00:23:37;;;;;;;25.00;11.63;;;6.10;99.90;;;;;;4930644;29;20035;-94
2023/11/17 00:26:04;;;;;;;27.90;11.18;;;6.10;99.90;;;;;;4931974;29;20055;-96
2023/11/17 00:28:39;;;;;;;24.38;11.73;;;6.10;99.90;;;;;;4931026;29;20107;-94
2023/11/17 00:31:11;;;;;;;22.13;10.88;;;6.10;99.90;;;;;;4933672;29;20023;-94
2023/11/17 00:33:37;;;;;;;25.63;10.77;;;6.10;99.90;;;;;;4933616;29;20028;-92
2023/11/17 00:36:04;;;;;;;23.08;10.98;;;6.10;99.90;;;;;;4930800;29;20429;-92
2023/11/17 00:38:31;;;;;;;23.92;9.85;;;6.20;99.90;;;;;;4939407;29;20099;-92
2023/11/17 00:41:00;;;;;;;20.13;9.43;;;6.10;99.90;;;;;;4931734;29;20442;-93
2023/11/17 00:43:27;;;;;;;21.15;8.95;;;6.20;99.90;;;;;;4930703;29;20039;-92
2023/11/17 00:45:58;;;;;;;16.70;8.13;;;6.10;99.90;;;;;;4929421;29;20043;-91
2023/11/17 00:48:30;;;;;;;18.65;8.23;;;6.10;99.90;;;;;;4930325;29;20055;-90
2023/11/17 00:51:01;;;;;;;21.50;9.35;;;6.10;99.90;;;;;;4934562;29;20046;-90
2023/11/17 00:53:28;;;;;;;22.60;8.32;;;6.10;99.90;;;;;;4934651;29;20035;-93
2023/11/17 00:56:04;;;;;;;16.85;9.00;;;6.10;99.90;;;;;;4931382;29;20108;-91
2023/11/17 00:58:30;;;;;;;20.90;9.20;;;6.10;99.90;;;;;;4930398;29;20027;-90
2023/11/17 01:00:57;;;;;;;19.58;9.32;;;6.20;99.90;;;;;;4931282;29;20044;-90
2023/11/17 01:03:23;;;;;;;15.80;6.88;;;6.20;99.90;;;;;;4931407;29;20028;-90
2023/11/17 01:05:49;;;;;;;15.15;6.45;;;6.20;99.90;;;;;;4931637;29;20051;-92
2023/11/17 01:08:15;;;;;;;16.10;7.63;;;6.20;99.90;;;;;;4937970;29;20067;-91
2023/11/17 01:10:41;;;;;;;16.83;7.28;;;6.20;99.90;;;;;;4937931;29;20496;-91
2023/11/17 01:13:08;;;;;;;13.73;6.00;;;6.20;99.90;;;;;;4937578;29;20032;-91
2023/11/17 01:15:35;;;;;;;13.25;7.40;;;6.20;99.90;;;;;;4939001;29;20035;-92
2023/11/17 01:18:05;;;;;;;13.85;6.47;;;6.20;99.90;;;;;;4948059;29;20515;-92
2023/11/17 01:20:32;;;;;;;;;;;6.20;99.90;;;;;;4948520;29;20035;-92
2023/11/17 01:23:01;;;;;;;9.18;5.25;;;6.10;99.90;;;;;;4944766;29;19918;-92
2023/11/17 01:25:32;;;;;;;8.70;4.03;;;6.20;99.90;;;;;;4943448;29;20034;-92
2023/11/17 01:27:58;;;;;;;10.40;5.45;;;6.10;99.90;;;;;;4939471;29;20535;-92
2023/11/17 01:30:24;;;;;;;11.55;5.28;;;6.10;99.90;;;;;;4939931;29;20035;-92
2023/11/17 01:32:50;;;;;;;10.55;4.65;;;6.10;99.90;;;;;;4939832;29;20020;-92
2023/11/17 01:35:16;;;;;;;10.27;4.43;;;6.00;99.90;;;;;;4940169;29;20027;-92
2023/11/17 01:37:42;;;;;;;10.80;5.03;;;6.10;99.90;;;;;;4938746;29;20024;-91
2023/11/17 01:40:09;;;;;;;7.07;4.45;;;6.10;99.90;;;;;;4938651;29;20031;-92
2023/11/17 01:42:37;;;;;;;9.38;4.65;;;6.00;99.90;;;;;;4936658;29;20043;-92
2023/11/17 01:45:07;;;;;;;8.88;4.65;;;6.00;99.90;;;;;;4937965;29;20058;-91
2023/11/17 01:47:36;;;;;;;10.25;4.30;;;6.00;99.90;;;;;;4951528;29;20036;-91
2023/11/17 01:50:02;;;;;;;9.27;4.28;;;6.10;99.90;;;;;;4955490;29;20024;-92
2023/11/17 01:52:28;;;;;;;9.45;4.57;;;6.00;99.90;;;;;;4953973;29;20036;-92
2023/11/17 01:54:55;;;;;;;6.88;3.88;;;6.10;99.90;;;;;;4941009;29;20043;-92
2023/11/17 01:57:22;;;;;;;8.40;4.00;;;6.10;99.90;;;;;;4939397;29;20038;-92
2023/11/17 01:59:48;;;;;;;9.43;3.80;;;6.10;99.90;;;;;;4938799;29;20039;-93
2023/11/17 02:02:14;;;;;;;9.63;4.25;;;6.10;99.90;;;;;;4937919;29;20027;-92
2023/11/17 02:04:40;;;;;;;8.57;4.50;;;6.10;99.90;;;;;;4937609;29;20043;-93
2023/11/17 02:07:26;;;;;;;9.27;4.70;;;6.10;99.90;;;;;;4938307;29;20028;-93
2023/11/17 02:10:20;;;;;;;8.25;3.88;;;6.10;99.90;;;;;;4937083;29;20051;-92
2023/11/17 02:13:06;;;;;;;7.30;3.83;;;6.10;99.90;;;;;;4936968;29;20051;-92
2023/11/17 02:15:35;;;;;;;8.02;3.50;;;6.00;99.90;;;;;;4937977;29;20047;-92
2023/11/17 02:18:04;;;;;;;8.83;3.40;;;6.00;99.90;;;;;;4935730;28;20027;-91
2023/11/17 02:20:34;;;;;;;8.02;3.72;;;6.10;99.90;;;;;;4937379;29;20041;-93
2023/11/17 02:23:10;;;;;;;7.38;3.80;;;6.00;99.90;;;;;;4936917;29;20039;-92
2023/11/17 02:25:44;;;;;;;7.38;3.42;;;6.10;99.90;;;;;;4937253;29;20083;-92
2023/11/17 02:28:34;;;;;;;6.78;4.10;;;6.00;99.90;;;;;;4938452;29;20030;-92
2023/11/17 02:31:15;;;;;;;7.50;3.95;;;6.00;99.90;;;;;;4939765;29;20036;-92
2023/11/17 02:33:45;;;;;;;8.88;4.00;;;6.00;99.90;;;;;;4938200;29;20020;-93
2023/11/17 02:36:17;;;;;;;;;;;6.10;99.90;;;;;;4936430;29;20031;-93
2023/11/17 02:38:57;;;;;;;5.07;3.25;;;6.10;99.90;;;;;;4936546;29;19978;-93
2023/11/17 02:41:32;;;;;;;;;;;6.10;99.90;;;;;;4936327;29;20135;-92
2023/11/17 02:44:02;;;;;;;13.27;4.65;;;6.10;99.90;;;;;;4935556;29;20014;-92
2023/11/17 02:46:32;;;;;;;;;;;6.10;99.90;;;;;;4938593;29;20082;-92
2023/11/17 02:49:10;;;;;;;6.00;3.65;;;6.00;99.90;;;;;;4935563;29;20581;-92
2023/11/17 02:51:45;;;;;;;7.97;4.00;;;6.00;99.90;;;;;;4936541;29;20054;-92
2023/11/17 02:54:16;;;;;;;10.57;4.22;;;6.00;99.90;;;;;;4935486;29;20023;-93
2023/11/17 02:56:43;;;;;;;7.38;3.17;;;6.00;99.90;;;;;;4935340;29;20019;-92
2023/11/17 02:59:10;;;;;;;10.10;3.40;;;6.00;99.90;;;;;;4936053;29;20488;-92
2023/11/17 03:01:40;;;;;;;11.68;3.70;;;6.00;99.90;;;;;;4933682;29;20055;-92
2023/11/17 03:04:16;;;;;;;5.20;3.07;;;6.00;99.90;;;;;;4935840;29;20031;-92
2023/11/17 03:06:49;;;;;;;6.97;3.13;;;5.90;99.90;;;;;;4936467;29;20715;-92
2023/11/17 03:09:17;;;;;;;8.05;3.40;;;5.90;99.90;;;;;;4935799;29;20020;-92
2023/11/17 03:11:44;;;;;;;7.35;2.97;;;5.90;99.90;;;;;;4935545;29;20054;-92
2023/11/17 03:14:10;;;;;;;6.00;3.50;;;5.90;99.90;;;;;;4935447;29;20531;-91
2023/11/17 03:16:37;;;;;;;4.93;2.65;;;5.90;99.90;;;;;;4934407;29;20470;-92
2023/11/17 03:19:04;;;;;;;4.35;2.60;;;5.90;99.90;;;;;;4934643;29;20470;-92
2023/11/17 03:21:29;;;;;;;6.72;2.70;;;5.90;99.90;;;;;;4935271;29;20118;-91
2023/11/17 03:23:55;;;;;;;4.93;2.28;;;5.90;99.90;;;;;;4934910;29;20110;-89
2023/11/17 03:26:21;;;;;;;3.83;2.13;;;5.90;99.90;;;;;;4935324;29;20027;-91
2023/11/17 03:28:46;;;;;;;6.13;2.45;;;5.90;99.90;;;;;;4934756;29;20500;-93
2023/11/17 03:31:15;;;;;;;13.63;3.25;;;5.90;99.90;;;;;;4934417;29;20381;-92
2023/11/17 03:33:45;;;;;;;4.88;2.17;;;5.90;99.90;;;;;;4934169;29;20020;-92
2023/11/17 03:36:18;;;;;;;3.10;1.63;;;5.80;99.90;;;;;;4934990;29;20064;-92
2023/11/17 03:38:44;;;;;;;4.25;1.25;;;5.80;99.90;;;;;;4935263;29;20027;-92
2023/11/17 03:41:11;;;;;;;2.75;1.60;;;5.80;99.90;;;;;;4934195;29;20028;-92
2023/11/17 03:43:37;;;;;;;2.50;0.95;;;5.80;99.90;;;;;;4935382;29;20054;-91
2023/11/17 03:46:03;;;;;;;1.98;0.90;;;5.80;99.90;;;;;;4935046;29;20464;-92
2023/11/17 03:48:30;;;;;;;5.72;1.23;;;5.80;99.90;;;;;;4934025;29;20279;-91
2023/11/17 03:50:55;;;;;;;3.33;1.27;;;5.80;99.90;;;;;;4933642;29;20040;-92
2023/11/17 03:53:21;;;;;;;3.05;1.50;;;5.80;99.90;;;;;;4934603;29;20031;-91
2023/11/17 03:55:46;;;;;;;3.65;1.67;;;5.80;99.90;;;;;;4933860;29;20028;-91
2023/11/17 03:58:12;;;;;;;3.00;1.15;;;5.80;99.90;;;;;;4932629;29;20039;-91
2023/11/17 04:00:38;;;;;;;4.25;1.75;;;5.80;99.90;;;;;;4934562;29;20119;-92
2023/11/17 04:03:04;;;;;;;3.17;1.83;;;5.80;99.90;;;;;;4933166;29;20034;-90
2023/11/17 04:05:32;;;;;;;4.70;2.15;;;5.80;99.90;;;;;;4934374;29;20054;-91
2023/11/17 04:07:58;;;;;;;6.47;2.63;;;5.80;99.90;;;;;;4935293;29;20024;-91
2023/11/17 04:10:24;;;;;;;6.30;3.47;;;5.80;99.90;;;;;;4934448;29;20549;-91
2023/11/17 04:12:50;;;;;;;5.60;2.42;;;5.80;99.90;;;;;;4937660;29;20055;-91
2023/11/17 04:15:16;;;;;;;4.65;2.38;;;5.70;99.90;;;;;;4936282;29;20028;-90
2023/11/17 04:17:41;;;;;;;4.15;2.30;;;5.70;99.90;;;;;;4936675;29;20036;-91
2023/11/17 04:20:17;;;;;;;3.67;2.22;;;5.70;99.90;;;;;;4935695;29;20528;-91
2023/11/17 04:22:43;;;;;;;3.58;1.58;;;5.70;99.90;;;;;;4940956;29;20059;-91
2023/11/17 04:25:09;;;;;;;3.45;1.05;;;5.70;99.90;;;;;;4942622;29;20035;-92
2023/11/17 04:27:38;;;;;;;2.33;1.33;;;5.70;99.90;;;;;;4942322;29;20059;-92
2023/11/17 04:30:07;;;;;;;4.38;0.98;;;5.70;99.90;;;;;;4940529;29;20020;-92
2023/11/17 04:32:34;;;;;;;5.03;1.10;;;5.70;99.90;;;;;;4939421;29;20039;-92
2023/11/17 04:35:01;;;;;;;4.35;1.52;;;5.70;99.90;;;;;;4937945;29;20370;-92
2023/11/17 04:37:27;;;;;;;2.35;1.20;;;5.80;99.90;;;;;;4936274;29;20028;-91
2023/11/17 04:39:53;;;;;;;4.78;1.17;;;5.80;99.90;;;;;;4935280;29;20784;-92
2023/11/17 04:42:19;;;;;;;4.50;1.88;;;5.80;99.90;;;;;;4938242;29;20122;-92
2023/11/17 04:44:46;;;;;;;4.63;2.47;;;5.80;99.90;;;;;;4940445;29;20082;-92
2023/11/17 04:47:12;;;;;;;9.68;3.55;;;5.80;99.90;;;;;;4938903;29;20078;-91
2023/11/17 04:49:37;;;;;;;11.18;5.57;;;5.80;99.90;;;;;;4938617;29;20019;-91
2023/11/17 04:52:03;;;;;;;17.15;8.07;;;5.90;99.90;;;;;;4937891;29;20032;-92
2023/11/17 04:54:29;;;;;;;10.27;6.80;;;5.90;99.90;;;;;;4938067;29;20016;-92
2023/11/17 04:56:57;;;;;;;12.73;4.38;;;5.90;99.90;;;;;;4938980;29;20103;-92
2023/11/17 04:59:23;;;;;;;12.35;8.15;;;5.90;99.90;;;;;;4936936;29;20034;-92
2023/11/17 05:01:49;;;;;;;16.17;8.30;;;5.90;99.90;;;;;;4937594;29;20051;-92
2023/11/17 05:04:15;;;;;;;15.07;6.93;;;5.90;99.90;;;;;;4937112;29;20083;-92
2023/11/17 05:06:42;;;;;;;13.23;6.85;;;6.00;99.90;;;;;;4936618;29;20111;-92
2023/11/17 05:09:12;;;;;;;10.52;7.53;;;5.90;99.90;;;;;;4936804;29;20226;-92
2023/11/17 05:11:38;;;;;;;8.90;5.78;;;5.90;99.90;;;;;;4937143;29;20027;-91
2023/11/17 05:14:07;;;;;;;17.10;7.38;;;5.90;99.90;;;;;;4936670;29;20031;-91
2023/11/17 05:16:37;;;;;;;9.50;5.00;;;5.90;99.90;;;;;;4936506;29;20161;-92
2023/11/17 05:19:06;;;;;;;16.03;5.97;;;6.00;99.90;;;;;;4937325;29;20047;-91
2023/11/17 05:21:32;;;;;;;10.13;6.45;;;6.00;99.90;;;;;;4937808;29;20855;-91
2023/11/17 05:23:59;;;;;;;12.02;6.32;;;6.00;99.90;;;;;;4937433;29;20062;-92
2023/11/17 05:26:25;;;;;;;12.35;5.97;;;5.90;99.90;;;;;;4937250;29;20063;-92
2023/11/17 05:28:51;;;;;;;9.55;5.40;;;5.90;99.90;;;;;;4936947;29;20020;-92
2023/11/17 05:31:20;;;;;;;10.93;4.72;;;6.00;99.90;;;;;;4938014;29;20024;-92
2023/11/17 05:33:46;;;;;;;14.07;5.68;;;5.90;99.90;;;;;;4937588;29;20032;-91
2023/11/17 05:36:13;;;;;;;6.13;4.22;;;5.90;99.90;;;;;;4937459;29;20474;-92
2023/11/17 05:38:38;;;;;;;14.82;5.53;;;5.90;99.90;;;;;;4937289;29;20035;-91
2023/11/17 05:41:05;;;;;;;8.23;5.15;;;5.90;99.90;;;;;;4936874;29;20023;-91
2023/11/17 05:43:31;;;;;;;17.70;5.88;;;5.80;99.90;;;;;;4937274;29;20401;-92
2023/11/17 05:46:00;;;;;;;14.75;5.65;;;5.80;99.90;;;;;;4937074;29;20111;-91
2023/11/17 05:48:26;;;;;;;7.97;3.90;;;5.80;99.90;;;;;;4937098;29;20046;-91
2023/11/17 05:50:51;;;;;;;10.05;4.30;;;5.80;99.90;;;;;;4936068;29;20122;-91
2023/11/17 05:53:17;;;;;;;11.80;5.28;;;5.80;99.90;;;;;;4936860;29;20107;-92
2023/11/17 05:55:43;;;;;;;10.30;5.18;;;5.80;99.90;;;;;;4936837;29;20053;-91
2023/11/17 05:58:08;;;;;;;11.52;4.45;;;5.80;99.90;;;;;;4938204;29;20027;-92
2023/11/17 06:00:34;;;;;;;8.73;4.15;;;5.70;99.90;;;;;;4942744;29;20023;-91
2023/11/17 06:03:00;;;;;;;17.83;5.47;;;5.80;99.90;;;;;;4943531;29;20036;-90
2023/11/17 06:05:25;;;;;;;8.43;4.30;;;5.70;99.90;;;;;;4941851;29;20055;-90
2023/11/17 06:07:51;;;;;;;10.25;4.00;;;5.70;99.90;;;;;;4941957;29;20019;-92
2023/11/17 06:10:17;;;;;;;12.85;4.50;;;5.70;99.90;;;;;;4944008;29;20082;-91
2023/11/17 06:12:42;;;;;;;10.77;4.40;;;5.70;99.90;;;;;;4947020;29;20031;-91
2023/11/17 06:15:10;;;;;;;11.02;4.53;;;5.60;99.90;;;;;;4941286;29;20112;-91
2023/11/17 06:17:36;;;;;;;8.48;3.75;;;5.60;99.90;;;;;;4949248;29;20113;-92
2023/11/17 06:20:03;;;;;;;8.70;3.83;;;5.60;99.90;;;;;;4945030;29;20505;-91
2023/11/17 06:22:29;;;;;;;10.82;3.90;;;5.60;99.90;;;;;;4946387;29;20074;-91
2023/11/17 06:24:56;;;;;;;12.98;4.30;;;5.60;99.90;;;;;;4947969;29;20489;-91
2023/11/17 06:27:23;;;;;;;10.32;3.88;;;5.50;99.90;;;;;;4945280;29;20028;-91
2023/11/17 06:29:49;;;;;;;13.10;3.60;;;5.50;99.90;;;;;;4945557;29;20034;-91
2023/11/17 06:32:15;;;;;;;9.23;3.20;;;5.50;99.90;;;;;;4945107;29;20083;-91
2023/11/17 06:34:41;;;;;;;5.85;3.53;;;5.50;99.90;;;;;;4945655;29;20023;-91
2023/11/17 06:37:07;;;;;;;11.02;3.33;;;5.40;99.90;;;;;;4944306;29;20056;-92
2023/11/17 06:39:33;;;;;;;8.38;3.10;;;5.30;99.90;;;;;;4938632;29;20075;-92
2023/11/17 06:41:59;;;;;;;13.43;3.38;;;5.30;99.90;;;;;;4937495;29;20032;-92
2023/11/17 06:44:25;;;;;;;10.23;3.40;;;5.30;99.90;;;;;;4937094;29;20023;-92
2023/11/17 06:46:52;;;;;;;9.80;2.58;;;5.30;99.90;;;;;;4937229;29;20027;-92
2023/11/17 06:49:19;;;;;;;9.75;2.90;;;5.20;99.90;;;;;;4941002;29;20092;-92
2023/11/17 06:51:50;;;;;;;8.52;2.30;;;5.20;99.90;;;;;;4941344;29;20031;-93
2023/11/17 06:54:18;;;;;;;18.10;2.53;;;5.20;99.90;;;;;;4938088;29;20051;-93
2023/11/17 06:56:44;;;;;;;9.68;2.83;;;5.20;99.90;;;;;;4937366;29;20032;-92
2023/11/17 06:59:11;;;;;;;10.13;2.40;;;5.20;99.90;;;;;;4937070;29;20024;-92
2023/11/17 07:01:37;;;;;;;4.28;2.25;;;5.10;99.90;;;;;;4937249;29;20070;-91
2023/11/17 07:04:07;;;;;;;8.07;2.85;;;5.10;99.90;;;;;;4932203;29;20036;-91
2023/11/17 07:06:34;;;;;;;13.65;2.83;;;5.10;99.90;;;;;;4933934;29;20388;-91
2023/11/17 07:09:01;;;;;;;16.30;2.78;;;5.00;99.90;;;;;;4930981;29;20032;-89
2023/11/17 07:11:29;;;;;;;12.50;2.35;;;5.00;99.90;;;;;;4931123;29;20032;-91
2023/11/17 07:13:55;;;;;;;11.93;2.25;;;5.00;99.90;;;;;;4932784;29;20114;-93
2023/11/17 07:16:24;;;;;;;7.68;2.05;;;4.90;99.90;;;;;;4932402;29;20060;-89
2023/11/17 07:18:50;;;;;;;13.25;2.38;;;4.90;99.90;;;;;;4932112;29;20043;-90
2023/11/17 07:21:16;;;;;;;10.20;2.53;;;4.80;99.90;;;;;;4932088;29;20084;-90
2023/11/17 07:23:44;;;;;;;13.13;3.78;;;4.80;99.90;;;;;;4932826;29;20114;-90
2023/11/17 07:26:17;;;;;;;7.63;1.95;;;4.80;99.90;;;;;;4936453;29;20028;-91
2023/11/17 07:28:47;;;;;;;8.45;2.10;;;4.70;99.90;;;;;;4937390;29;20086;-90
2023/11/17 07:31:18;;;;;;;5.17;1.80;;;4.70;99.90;;;;;;4941223;29;20117;-90
2023/11/17 07:33:44;;;;;;;13.95;2.20;;;4.60;99.90;;;;;;4941672;29;20043;-91
2023/11/17 07:36:15;;;;;;;7.45;1.90;;;4.60;99.90;;;;;;4939296;29;20114;-91
2023/11/17 07:38:42;;;;;;;15.25;2.03;;;4.60;99.90;;;;;;4937817;29;20492;-90
2023/11/17 07:41:08;;;;;;;15.65;1.73;;;4.50;99.90;;;;;;4934632;29;20035;-90
2023/11/17 07:43:36;;;;;;;8.93;2.00;;;4.50;99.90;;;;;;4934253;29;20127;-91
2023/11/17 07:46:02;;;;;;;13.15;5.03;;;4.40;99.90;;;;;;4932250;29;20032;-89
2023/11/17 07:48:31;;;;;;;7.50;2.38;;;4.40;99.90;;;;;;4931236;29;20393;-90
2023/11/17 07:50:58;;;;;;;14.90;2.45;;;4.40;99.90;;;;;;4939482;29;20059;-88
2023/11/17 07:53:23;;;;;;;13.07;3.20;;;4.30;99.90;;;;;;4932485;29;20027;-90
2023/11/17 07:55:52;;;;;;;9.95;1.80;;;4.30;99.90;;;;;;4934089;29;20031;-93
2023/11/17 07:58:20;;;;;;;7.75;1.73;;;4.30;99.90;;;;;;4935435;29;20028;-93
2023/11/17 08:01:11;;;;;;;6.00;1.40;;;4.30;99.90;;;;;;4930639;29;20024;-90
2023/11/17 08:03:37;;;;;;;;;;;4.30;99.90;;;;;;4943084;28;20047;-90
2023/11/17 08:06:04;;;;;;;7.22;1.88;;;4.20;99.90;;;;;;4935832;29;19914;-89
2023/11/17 08:08:30;;;;;;;11.88;2.50;;;4.20;99.90;;;;;;4933795;29;20027;-92
2023/11/17 08:10:57;;;;;;;12.15;2.28;;;4.10;99.90;;;;;;4933434;29;20024;-91
2023/11/17 08:13:22;;;;;;;9.48;2.60;;;4.10;99.90;;;;;;4934084;29;20066;-90
2023/11/17 08:15:49;;;;;;;9.90;2.33;;;4.10;99.90;;;;;;4933772;29;20064;-91
2023/11/17 08:18:18;;;;;;;8.02;2.03;;;4.10;99.90;;;;;;4932248;29;20549;-90
2023/11/17 08:20:45;;;;;;;11.85;3.78;;;4.10;99.90;;;;;;4931816;29;20035;-90
2023/11/17 08:23:11;;;;;;;17.08;3.78;;;4.10;99.90;;;;;;4934690;29;20023;-92
2023/11/17 08:25:38;;;;;;;10.02;2.00;;;4.10;99.90;;;;;;4918716;29;20039;-90
2023/11/17 08:28:04;;;;;;;8.60;2.53;;;4.10;99.90;;;;;;4922913;29;20027;-90
2023/11/17 08:30:30;;;;;;;10.02;2.22;;;4.10;99.90;;;;;;4934086;29;20035;-92
2023/11/17 08:32:57;;;;;;;6.82;1.95;;;4.10;99.90;;;;;;4934355;29;20032;-89
2023/11/17 08:35:22;;;;;;;12.00;2.83;;;4.10;99.90;;;;;;4934699;29;20031;-89
2023/11/17 08:37:50;;;;;;;9.93;2.30;;;4.10;99.90;;;;;;4934303;29;20478;-91
2023/11/17 08:40:18;;;;;;;10.43;2.20;;;4.10;99.90;;;;;;4934750;29;20055;-92
2023/11/17 08:42:44;;;;;;;9.15;2.30;;;4.10;99.90;;;;;;4935345;29;20426;-91
2023/11/17 08:45:12;;;;;;;10.23;2.40;;;4.10;99.90;;;;;;4935716;29;20039;-91
2023/11/17 08:47:39;;;;;;;10.20;2.30;;;4.20;99.90;;;;;;4933080;29;20091;-92
2023/11/17 08:50:07;;;;;;;10.57;2.97;;;4.30;99.90;;;;;;4934605;29;20028;-91
2023/11/17 08:52:37;;;;;;;11.50;3.50;;;4.40;99.90;;;;;;4935103;29;20035;-93
2023/11/17 08:55:14;;;;;;;8.68;2.85;;;4.50;99.90;;;;;;4933885;29;20096;-92
2023/11/17 08:57:41;;;;;;;10.07;2.90;;;4.60;99.90;;;;;;4935116;29;20024;-93
2023/11/17 09:00:12;;;;;;;18.75;3.95;;;4.70;99.90;;;;;;4935348;29;20019;-93
2023/11/17 09:02:56;;;;;;;14.43;2.80;;;4.80;99.90;;;;;;4935583;29;20087;-93
2023/11/17 09:05:23;;;;;;;20.35;3.05;;;5.00;99.90;;;;;;4934318;29;20466;-93
2023/11/17 09:07:50;;;;;;;13.02;2.13;;;5.10;99.90;;;;;;4934716;29;20032;-93
2023/11/17 09:10:22;;;;;;;10.95;1.92;;;5.20;99.90;;;;;;4939135;29;20633;-93
2023/11/17 09:12:49;;;;;;;9.68;1.88;;;5.40;99.90;;;;;;4935850;29;20036;-93
2023/11/17 09:15:21;;;;;;;11.98;2.65;;;5.60;99.90;;;;;;4942705;29;20026;-92
2023/11/17 09:17:50;;;;;;;8.23;1.75;;;5.80;99.90;;;;;;4954000;29;20028;-91
2023/11/17 09:20:17;;;;;;;5.15;1.95;;;6.00;99.90;;;;;;4953883;29;20106;-92
2023/11/17 09:22:47;;;;;;;10.23;2.33;;;6.20;99.90;;;;;;4952129;29;20036;-92
2023/11/17 09:25:15;;;;;;;10.82;2.53;;;6.40;99.90;;;;;;4954928;29;20020;-93
2023/11/17 09:27:41;;;;;;;8.00;2.20;;;6.70;99.90;;;;;;4936224;29;20043;-92
2023/11/17 09:30:12;;;;;;;7.80;1.80;;;6.90;99.90;;;;;;4953777;29;20039;-93
2023/11/17 09:32:39;;;;;;;12.70;1.88;;;7.20;99.90;;;;;;4942109;29;20031;-93
2023/11/17 09:35:13;;;;;;;13.80;2.05;;;7.50;99.90;;;;;;4944448;29;20023;-94
2023/11/17 09:37:59;;;;;;;14.55;1.90;;;7.90;99.90;;;;;;4938705;29;20069;-94
2023/11/17 09:40:26;;;;;;;11.45;1.80;;;8.30;99.90;;;;;;4928731;29;20025;-93
2023/11/17 09:42:55;;;;;;;13.55;1.75;;;8.70;99.90;;;;;;4938787;29;20036;-93
2023/11/17 09:45:22;;;;;;;13.07;2.38;;;9.10;99.90;;;;;;4938737;29;20050;-93
2023/11/17 09:48:11;;;;;;;21.05;2.65;;;9.50;99.90;;;;;;4936788;29;20036;-92
2023/11/17 09:50:40;;;;;;;9.93;1.70;;;9.90;99.90;;;;;;4938860;29;20118;-93
2023/11/17 09:53:07;;;;;;;6.38;2.10;;;10.10;99.90;;;;;;4935297;29;20027;-93
2023/11/17 09:55:33;;;;;;;11.77;2.33;;;10.40;99.90;;;;;;4937050;29;20095;-93
2023/11/17 09:58:04;;;;;;;14.18;2.13;;;10.70;99.90;;;;;;4938859;29;20028;-92
2023/11/17 10:00:31;;;;;;;20.10;2.53;;;11.00;99.90;;;;;;4938643;29;20507;-93
2023/11/17 10:02:59;;;;;;;8.88;1.90;;;11.00;99.90;;;;;;4937451;29;20035;-93
2023/11/17 10:05:30;;;;;;;10.77;2.10;;;10.90;99.90;;;;;;4937709;29;20477;-93
2023/11/17 10:08:07;;;;;;;12.38;2.05;;;10.60;99.90;;;;;;4935396;29;20118;-93
2023/11/17 10:10:38;;;;;;;6.85;2.17;;;10.40;99.90;;;;;;4938906;29;20087;-93
2023/11/17 10:13:11;;;;;;;14.80;2.50;;;10.00;99.90;;;;;;4937996;29;20126;-93
2023/11/17 10:15:44;;;;;;;13.02;1.88;;;9.80;99.90;;;;;;4938595;29;20027;-93
2023/11/17 10:18:14;;;;;;;9.30;1.83;;;9.60;99.90;;;;;;4936272;29;20051;-92
2023/11/17 10:20:41;;;;;;;8.13;1.67;;;9.40;99.90;;;;;;4948597;28;20114;-93
2023/11/17 10:23:08;;;;;;;14.57;3.05;;;9.20;99.90;;;;;;4951441;29;20034;-93
2023/11/17 10:25:34;;;;;;;13.07;1.90;;;9.10;99.90;;;;;;4951035;29;20043;-93
2023/11/17 10:28:05;;;;;;;13.13;2.20;;;9.10;99.90;;;;;;4945643;29;20044;-90
2023/11/17 10:30:37;;;;;;;14.68;2.47;;;9.30;99.90;;;;;;4942531;29;20047;-92
2023/11/17 10:33:31;;;;;;;9.43;2.13;;;9.50;99.90;;;;;;4941178;29;20027;-95
2023/11/17 10:36:11;;;;;;;12.00;1.90;;;9.90;99.90;;;;;;4939501;29;20020;-94
2023/11/17 10:38:45;;;;;;;14.57;1.85;;;10.40;99.90;;;;;;4937538;29;20047;-94
2023/11/17 10:41:35;;;;;;;8.27;1.75;;;10.80;99.90;;;;;;4943848;29;20040;-93
2023/11/17 10:44:02;;;;;;;13.57;4.20;;;11.30;99.90;;;;;;4947222;29;20023;-94
2023/11/17 10:46:29;;;;;;;12.95;1.85;;;11.70;99.90;;;;;;4944572;29;20477;-94
2023/11/17 10:49:04;;;;;;;12.00;1.77;;;12.10;99.90;;;;;;4939563;29;20028;-93
2023/11/17 10:51:31;;;;;;;11.43;1.77;;;12.60;99.90;;;;;;4939071;29;20401;-93
2023/11/17 10:54:08;;;;;;;12.50;2.05;;;12.90;99.90;;;;;;4937053;29;20095;-93
2023/11/17 10:56:35;;;;;;;13.85;2.35;;;13.20;99.90;;;;;;4936545;29;20032;-92
2023/11/17 10:59:02;;;;;;;12.80;2.05;;;13.40;99.90;;;;;;4937641;29;20055;-93
2023/11/17 11:01:31;;;;;;;12.60;2.15;;;13.60;99.90;;;;;;4938610;29;20513;-92
2023/11/17 11:03:58;;;;;;;9.05;2.03;;;13.90;99.90;;;;;;4938048;29;20020;-94
2023/11/17 11:06:28;;;;;;;10.25;2.15;;;14.10;99.90;;;;;;4938880;29;20412;-94
2023/11/17 11:08:58;;;;;;;10.65;1.90;;;14.20;99.90;;;;;;4938601;29;20107;-94
2023/11/17 11:11:25;;;;;;;10.32;1.52;;;14.30;99.90;;;;;;4937586;29;20024;-93
2023/11/17 11:13:56;;;;;;;14.65;1.83;;;14.50;99.90;;;;;;4936784;29;20425;-91
2023/11/17 11:16:24;;;;;;;11.65;2.05;;;14.50;99.90;;;;;;4935695;29;20032;-93
2023/11/17 11:24:41;;;;;;;5.75;1.35;;;15.10;99.90;;;;;;5935703;23;20039;-93
2023/11/17 11:27:09;;;;;;;12.55;2.33;;;15.20;99.90;;;;;;4936772;29;20457;-93
2023/11/17 11:29:38;;;;;;;11.88;1.92;;;15.40;99.90;;;;;;4937505;29;20521;-94
2023/11/17 11:32:06;;;;;;;10.63;1.98;;;15.50;99.90;;;;;;4938164;29;20501;-92
2023/11/17 11:34:34;;;;;;;16.02;1.75;;;15.70;99.90;;;;;;4936513;29;20032;-93
2023/11/17 11:37:03;;;;;;;9.60;2.00;;;15.90;99.40;;;;;;4936288;29;20398;-92
2023/11/17 11:39:31;;;;;;;15.25;2.63;;;16.00;98.60;;;;;;4936660;29;20528;-92
2023/11/17 11:41:57;;;;;;;16.48;2.25;;;15.90;97.40;;;;;;4936489;29;20044;-91
2023/11/17 11:44:22;;;;;;;15.75;3.30;;;15.70;96.30;;;;;;4936525;29;20043;-92
2023/11/17 11:46:50;;;;;;;16.63;2.65;;;15.30;96.00;;;;;;4936526;29;20374;-92
2023/11/17 11:49:16;;;;;;;26.55;4.95;;;14.80;95.90;;;;;;4936385;29;20031;-91
2023/11/17 11:51:50;;;;;;;12.35;2.70;;;14.30;96.70;;;;;;4936563;29;20028;-92
2023/11/17 11:54:16;;;;;;;13.27;2.85;;;13.80;97.20;;;;;;4935212;29;20019;-92
2023/11/17 11:56:46;;;;;;;15.77;3.20;;;13.40;98.00;;;;;;4935135;29;20118;-92
2023/11/17 11:59:12;;;;;;;15.90;2.85;;;13.00;98.80;;;;;;4935928;29;20541;-92
2023/11/17 12:01:39;;;;;;;16.83;3.70;;;12.60;99.70;;;;;;4936517;29;20086;-92
2023/11/17 12:04:06;;;;;;;21.65;3.08;;;12.30;99.90;;;;;;4937016;29;20074;-91
2023/11/17 12:06:34;;;;;;;14.98;3.38;;;12.10;99.90;;;;;;4953844;29;20442;-91
2023/11/17 12:09:07;;;;;;;13.50;3.38;;;11.90;99.90;;;;;;4954241;29;20064;-92
2023/11/17 12:11:49;;;;;;;12.18;2.45;;;11.70;99.90;;;;;;4945926;29;20027;-92
2023/11/17 12:14:17;;;;;;;7.30;1.70;;;11.90;99.90;;;;;;4936290;29;20047;-92
2023/11/17 12:16:48;;;;;;;10.15;1.67;;;12.30;99.90;;;;;;4933098;29;20024;-92
2023/11/17 12:19:16;;;;;;;9.10;2.20;;;12.60;99.90;;;;;;4904551;29;20128;-91
2023/11/17 12:21:48;;;;;;;10.00;1.73;;;12.80;99.90;;;;;;4900915;29;20032;-91
2023/11/17 12:24:15;;;;;;;8.27;1.90;;;12.70;99.90;;;;;;4900416;29;20118;-91
2023/11/17 12:26:44;;;;;;;9.65;2.17;;;12.50;99.90;;;;;;4909210;29;20063;-92
2023/11/17 12:29:23;;;;;;;5.93;1.58;;;12.20;99.90;;;;;;4903089;29;20039;-91
2023/11/17 12:31:50;;;;;;;7.60;1.48;;;12.20;99.90;;;;;;4913211;29;20028;-93
2023/11/17 12:34:15;;;;;;;5.97;1.50;;;12.20;99.90;;;;;;4904386;29;20020;-93
2023/11/17 12:36:41;;;;;;;7.53;1.73;;;12.40;99.90;;;;;;4906858;29;20032;-93
2023/11/17 12:39:08;;;;;;;10.55;1.90;;;12.70;99.90;;;;;;4919594;29;20028;-92
2023/11/17 12:41:35;;;;;;;9.20;3.30;;;13.00;99.90;;;;;;4909287;29;20052;-92
2023/11/17 12:44:00;;;;;;;12.10;1.75;;;13.30;99.90;;;;;;4909053;29;20028;-92
2023/11/17 12:46:29;;;;;;;13.23;1.95;;;13.60;99.70;;;;;;4910147;29;20151;-92
2023/11/17 12:48:58;;;;;;;10.48;2.03;;;13.80;98.40;;;;;;4906453;29;20028;-91
2023/11/17 12:51:28;;;;;;;14.68;3.13;;;13.70;97.50;;;;;;4933623;29;20028;-92
2023/11/17 12:53:56;;;;;;;14.68;2.53;;;13.50;97.10;;;;;;4926741;29;20028;-92
2023/11/17 12:56:23;;;;;;;8.70;1.92;;;13.10;97.60;;;;;;4930045;29;20117;-92
2023/11/17 12:58:49;;;;;;;14.32;2.47;;;12.80;98.00;;;;;;4931526;29;20012;-93
2023/11/17 13:01:17;;;;;;;12.10;2.80;;;12.50;98.50;;;;;;4925680;29;20038;-91
2023/11/17 13:03:44;;;;;;;17.63;3.22;;;12.20;99.00;;;;;;4931603;29;20016;-90